sensor_id;sensor_type;location;lat;lon;timestamp;pressure;altitude;pressure_sealevel;temperature;humidity
48089;BME280;33867;50.314;7.802;2023-04-05T00:02:36;101187.22;;;-0.20;nan
48089;BME280;33867;50.314;7.802;2023-04-05T00:05:58;101199.03;;;-0.31;nan
48089;BME280;33867;50.314;7.802;2023-04-05T00:09:18;101198.00;;;-0.26;nan
48089;BME280;33867;50.314;7.802;2023-04-05T00:12:41;101190.34;;;-0.34;nan
48089;BME280;33867;50.314;7.802;2023-04-05T00:15:59;101191.53;;;-0.18;nan
48089;BME280;33867;50.314;7.802;2023-04-05T00:19:21;101187.22;;;-0.20;nan
48089;BME280;33867;50.314;7.802;2023-04-05T00:22:43;101186.09;;;-0.15;nan
48089;BME280;33867;50.314;7.802;2023-04-05T00:26:02;101182.72;;;-0.18;nan
48089;BME280;33867;50.314;7.802;2023-04-05T00:29:21;101188.06;;;-0.20;nan
48089;BME280;33867;50.314;7.802;2023-04-05T00:32:40;101184.25;;;-0.13;nan
48089;BME280;33867;50.314;7.802;2023-04-05T00:36:14;101175.47;;;-0.13;nan
48089;BME280;33867;50.314;7.802;2023-04-05T00:39:34;101181.13;;;-0.22;nan
48089;BME280;33867;50.314;7.802;2023-04-05T00:42:54;101177.06;;;-0.33;nan
48089;BME280;33867;50.314;7.802;2023-04-05T00:46:13;101173.63;;;-0.35;nan
48089;BME280;33867;50.314;7.802;2023-04-05T00:49:33;101170.00;;;-0.32;nan
48089;BME280;33867;50.314;7.802;2023-04-05T00:52:53;101170.00;;;-0.32;nan
48089;BME280;33867;50.314;7.802;2023-04-05T00:56:13;101180.72;;;-0.37;nan
48089;BME280;33867;50.314;7.802;2023-04-05T00:59:33;101170.25;;;-0.40;nan
48089;BME280;33867;50.314;7.802;2023-04-05T01:02:54;101171.78;;;-0.33;nan
48089;BME280;33867;50.314;7.802;2023-04-05T01:09:59;101164.63;;;-0.31;nan
48089;BME280;33867;50.314;7.802;2023-04-05T01:13:18;101161.19;;;-0.33;nan
48089;BME280;33867;50.314;7.802;2023-04-05T01:16:37;101150.81;;;-0.39;nan
48089;BME280;33867;50.314;7.802;2023-04-05T01:19:59;101148.03;;;-0.36;nan
48089;BME280;33867;50.314;7.802;2023-04-05T01:23:44;101142.06;;;-0.41;nan
48089;BME280;33867;50.314;7.802;2023-04-05T01:27:13;101146.94;;;-0.53;nan
48089;BME280;33867;50.314;7.802;2023-04-05T01:30:36;101144.22;;;-0.52;nan
48089;BME280;33867;50.314;7.802;2023-04-05T01:34:22;101151.66;;;-0.63;nan
48089;BME280;33867;50.314;7.802;2023-04-05T01:37:54;101151.97;;;-0.71;nan
48089;BME280;33867;50.314;7.802;2023-04-05T01:45:20;101149.19;;;-0.68;nan
48089;BME280;33867;50.314;7.802;2023-04-05T01:48:39;101138.88;;;-0.75;nan
48089;BME280;33867;50.314;7.802;2023-04-05T01:51:58;101151.34;;;-0.79;nan
48089;BME280;33867;50.314;7.802;2023-04-05T01:55:17;101145.88;;;-0.74;nan
48089;BME280;33867;50.314;7.802;2023-04-05T01:58:36;101137.97;;;-0.74;nan
48089;BME280;33867;50.314;7.802;2023-04-05T02:01:56;101136.34;;;-0.78;nan
48089;BME280;33867;50.314;7.802;2023-04-05T02:05:15;101134.41;;;-0.73;nan
48089;BME280;33867;50.314;7.802;2023-04-05T02:08:34;101134.19;;;-0.67;nan
48089;BME280;33867;50.314;7.802;2023-04-05T02:11:53;101134.41;;;-0.73;nan
48089;BME280;33867;50.314;7.802;2023-04-05T02:15:12;101129.22;;;-0.76;nan
48089;BME280;33867;50.314;7.802;2023-04-05T02:18:31;101138.19;;;-0.80;nan
48089;BME280;33867;50.314;7.802;2023-04-05T02:21:51;101142.66;;;-0.82;nan
48089;BME280;33867;50.314;7.802;2023-04-05T02:25:17;101131.16;;;-0.81;nan
48089;BME280;33867;50.314;7.802;2023-04-05T02:28:36;101130.88;;;-0.74;nan
48089;BME280;33867;50.314;7.802;2023-04-05T02:31:57;101129.38;;;-0.81;nan
48089;BME280;33867;50.314;7.802;2023-04-05T02:35:16;101129.75;;;-0.92;nan
48089;BME280;33867;50.314;7.802;2023-04-05T02:38:36;101128.22;;;-0.99;nan
48089;BME280;33867;50.314;7.802;2023-04-05T02:41:55;101126.56;;;-1.01;nan
48089;BME280;33867;50.314;7.802;2023-04-05T02:45:14;101130.56;;;-1.16;nan
48089;BME280;33867;50.314;7.802;2023-04-05T02:48:34;101128.75;;;-1.14;nan
48089;BME280;33867;50.314;7.802;2023-04-05T02:51:55;101133.56;;;-1.00;nan
48089;BME280;33867;50.314;7.802;2023-04-05T02:55:14;101131.31;;;-1.12;nan
48089;BME280;33867;50.314;7.802;2023-04-05T02:58:34;101125.00;;;-1.08;nan
48089;BME280;33867;50.314;7.802;2023-04-05T03:01:54;101124.50;;;-1.20;nan
48089;BME280;33867;50.314;7.802;2023-04-05T03:05:19;101123.09;;;-1.30;nan
48089;BME280;33867;50.314;7.802;2023-04-05T03:08:43;101118.88;;;-1.35;nan
48089;BME280;33867;50.314;7.802;2023-04-05T03:12:06;101123.22;;;-1.34;nan
48089;BME280;33867;50.314;7.802;2023-04-05T03:15:31;101123.69;;;-1.48;nan
48089;BME280;33867;50.314;7.802;2023-04-05T03:18:54;101114.03;;;-1.49;nan
48089;BME280;33867;50.314;7.802;2023-04-05T03:22:13;101111.28;;;-1.46;nan
48089;BME280;33867;50.314;7.802;2023-04-05T03:25:34;101117.31;;;-1.42;nan
48089;BME280;33867;50.314;7.802;2023-04-05T03:28:55;101115.47;;;-1.39;nan
48089;BME280;33867;50.314;7.802;2023-04-05T03:32:21;101122.59;;;-1.42;nan
48089;BME280;33867;50.314;7.802;2023-04-05T03:35:48;101118.88;;;-1.35;nan
48089;BME280;33867;50.314;7.802;2023-04-05T03:39:08;101123.84;;;-1.53;nan
48089;BME280;33867;50.314;7.802;2023-04-05T03:42:28;101114.53;;;-1.66;nan
48089;BME280;33867;50.314;7.802;2023-04-05T03:45:47;101119.00;;;-1.68;nan
48089;BME280;33867;50.314;7.802;2023-04-05T03:49:06;101112.88;;;-1.68;nan
48089;BME280;33867;50.314;7.802;2023-04-05T03:52:26;101112.09;;;-1.72;nan
48089;BME280;33867;50.314;7.802;2023-04-05T03:55:46;101120.13;;;-1.75;nan
48089;BME280;33867;50.314;7.802;2023-04-05T03:59:09;101114.84;;;-1.75;nan
48089;BME280;33867;50.314;7.802;2023-04-05T04:02:29;101109.47;;;-1.72;nan
48089;BME280;33867;50.314;7.802;2023-04-05T04:05:51;101113.56;;;-1.91;nan
48089;BME280;33867;50.314;7.802;2023-04-05T04:09:11;101108.59;;;-2.00;nan
48089;BME280;33867;50.314;7.802;2023-04-05T04:12:31;101125.78;;;-1.87;nan
48089;BME280;33867;50.314;7.802;2023-04-05T04:15:52;101113.31;;;-1.82;nan
48089;BME280;33867;50.314;7.802;2023-04-05T04:19:28;101107.69;;;-1.99;nan
48089;BME280;33867;50.314;7.802;2023-04-05T04:23:06;101115.66;;;-2.02;nan
48089;BME280;33867;50.314;7.802;2023-04-05T04:27:00;101109.53;;;-2.03;nan
48089;BME280;33867;50.314;7.802;2023-04-05T04:30:34;101117.50;;;-2.04;nan
48089;BME280;33867;50.314;7.802;2023-04-05T04:34:15;101118.59;;;-2.12;nan
48089;BME280;33867;50.314;7.802;2023-04-05T04:38:01;101118.56;;;-2.10;nan
48089;BME280;33867;50.314;7.802;2023-04-05T04:41:32;101112.66;;;-2.20;nan
48089;BME280;33867;50.314;7.802;2023-04-05T04:45:17;101118.09;;;-2.26;nan
48089;BME280;33867;50.314;7.802;2023-04-05T04:48:40;101119.13;;;-2.30;nan
48089;BME280;33867;50.314;7.802;2023-04-05T04:52:19;101120.84;;;-2.29;nan
48089;BME280;33867;50.314;7.802;2023-04-05T04:55:39;101123.53;;;-2.30;nan
48089;BME280;33867;50.314;7.802;2023-04-05T04:59:00;101118.97;;;-2.24;nan
48089;BME280;33867;50.314;7.802;2023-04-05T05:02:25;101123.13;;;-2.17;nan
48089;BME280;33867;50.314;7.802;2023-04-05T05:05:47;101124.78;;;-2.13;nan
48089;BME280;33867;50.314;7.802;2023-04-05T05:09:11;101124.44;;;-2.00;nan
48089;BME280;33867;50.314;7.802;2023-04-05T05:12:41;101124.31;;;-1.97;nan
48089;BME280;33867;50.314;7.802;2023-04-05T05:16:02;101119.97;;;-1.98;nan
48089;BME280;33867;50.314;7.802;2023-04-05T05:19:22;101117.31;;;-1.98;nan
48089;BME280;33867;50.314;7.802;2023-04-05T05:22:45;101120.66;;;-1.93;nan
48089;BME280;33867;50.314;7.802;2023-04-05T05:26:04;101123.31;;;-1.93;nan
48089;BME280;33867;50.314;7.802;2023-04-05T05:29:23;101119.69;;;-1.89;nan
48089;BME280;33867;50.314;7.802;2023-04-05T05:32:42;101123.38;;;-1.95;nan
48089;BME280;33867;50.314;7.802;2023-04-05T05:36:01;101125.03;;;-1.92;nan
48089;BME280;33867;50.314;7.802;2023-04-05T05:39:22;101123.84;;;-1.82;nan
48089;BME280;33867;50.314;7.802;2023-04-05T05:42:41;101114.22;;;-1.83;nan
48089;BME280;33867;50.314;7.802;2023-04-05T05:46:01;101113.50;;;-1.88;nan
48089;BME280;33867;50.314;7.802;2023-04-05T05:49:20;101118.63;;;-1.84;nan
48089;BME280;33867;50.314;7.802;2023-04-05T05:52:47;101115.94;;;-1.82;nan
48089;BME280;33867;50.314;7.802;2023-04-05T05:56:06;101124.50;;;-1.74;nan
48089;BME280;33867;50.314;7.802;2023-04-05T05:59:25;101129.34;;;-1.60;nan
48089;BME280;33867;50.314;7.802;2023-04-05T06:02:44;101125.94;;;-1.64;nan
48089;BME280;33867;50.314;7.802;2023-04-05T06:06:03;101126.75;;;-1.62;nan
48089;BME280;33867;50.314;7.802;2023-04-05T06:09:28;101136.25;;;-1.56;nan
48089;BME280;33867;50.314;7.802;2023-04-05T06:12:49;101123.00;;;-1.55;nan
48089;BME280;33867;50.314;7.802;2023-04-05T06:16:09;101136.84;;;-1.47;nan
48089;BME280;33867;50.314;7.802;2023-04-05T06:19:28;101141.25;;;-1.47;nan
48089;BME280;33867;50.314;7.802;2023-04-05T06:22:47;101136.94;;;-1.50;nan
48089;BME280;33867;50.314;7.802;2023-04-05T06:26:07;101132.53;;;-1.49;nan
48089;BME280;33867;50.314;7.802;2023-04-05T06:29:26;101134.44;;;-1.26;nan
48089;BME280;33867;50.314;7.802;2023-04-05T06:32:46;101134.69;;;0.16;nan
48089;BME280;33867;50.314;7.802;2023-04-05T06:36:06;101126.31;;;4.37;nan
48089;BME280;33867;50.314;7.802;2023-04-05T06:39:25;101111.19;;;6.45;nan
48089;BME280;33867;50.314;7.802;2023-04-05T06:42:44;101102.56;;;7.86;nan
48089;BME280;33867;50.314;7.802;2023-04-05T06:46:07;101108.56;;;8.52;nan
48089;BME280;33867;50.314;7.802;2023-04-05T06:49:29;101101.97;;;9.16;nan
48089;BME280;33867;50.314;7.802;2023-04-05T06:52:48;101104.25;;;9.09;nan
48089;BME280;33867;50.314;7.802;2023-04-05T06:56:07;101098.84;;;9.33;nan
48089;BME280;33867;50.314;7.802;2023-04-05T06:59:27;101086.00;;;10.06;nan
48089;BME280;33867;50.314;7.802;2023-04-05T07:02:47;101087.16;;;10.80;nan
48089;BME280;33867;50.314;7.802;2023-04-05T07:06:06;101082.53;;;11.03;nan
48089;BME280;33867;50.314;7.802;2023-04-05T07:09:27;101080.28;;;11.40;nan
48089;BME280;33867;50.314;7.802;2023-04-05T07:12:49;101068.31;;;12.45;nan
48089;BME280;33867;50.314;7.802;2023-04-05T07:16:09;101068.09;;;13.45;nan
48089;BME280;33867;50.314;7.802;2023-04-05T07:19:28;101072.31;;;14.41;nan
48089;BME280;33867;50.314;7.802;2023-04-05T07:22:47;101064.91;;;15.24;nan
48089;BME280;33867;50.314;7.802;2023-04-05T07:26:06;101057.13;;;16.33;nan
48089;BME280;33867;50.314;7.802;2023-04-05T07:29:26;101060.53;;;15.67;nan
48089;BME280;33867;50.314;7.802;2023-04-05T07:32:45;101055.78;;;16.71;nan
48089;BME280;33867;50.314;7.802;2023-04-05T07:36:04;101053.66;;;16.15;nan
48089;BME280;33867;50.314;7.802;2023-04-05T07:39:23;101057.22;;;11.78;nan
48089;BME280;33867;50.314;7.802;2023-04-05T07:42:46;101065.22;;;9.17;nan
48089;BME280;33867;50.314;7.802;2023-04-05T07:46:06;101073.13;;;8.10;nan
48089;BME280;33867;50.314;7.802;2023-04-05T07:49:25;101063.09;;;7.50;nan
48089;BME280;33867;50.314;7.802;2023-04-05T07:52:45;101067.09;;;6.92;nan
48089;BME280;33867;50.314;7.802;2023-04-05T07:56:05;101063.97;;;5.88;nan
48089;BME280;33867;50.314;7.802;2023-04-05T07:59:24;101061.22;;;5.90;nan
48089;BME280;33867;50.314;7.802;2023-04-05T08:02:43;101057.31;;;5.96;nan
48089;BME280;33867;50.314;7.802;2023-04-05T08:06:12;101059.47;;;5.89;nan
48089;BME280;33867;50.314;7.802;2023-04-05T08:09:31;101054.50;;;5.54;nan
48089;BME280;33867;50.314;7.802;2023-04-05T08:12:50;101054.16;;;5.61;nan
48089;BME280;33867;50.314;7.802;2023-04-05T08:16:10;101044.41;;;5.45;nan
48089;BME280;33867;50.314;7.802;2023-04-05T08:19:29;101042.75;;;5.14;nan
48089;BME280;33867;50.314;7.802;2023-04-05T08:22:48;101046.78;;;5.21;nan
48089;BME280;33867;50.314;7.802;2023-04-05T08:26:07;101046.47;;;5.12;nan
48089;BME280;33867;50.314;7.802;2023-04-05T08:29:26;101052.78;;;5.39;nan
48089;BME280;33867;50.314;7.802;2023-04-05T08:32:45;101049.56;;;5.34;nan
48089;BME280;33867;50.314;7.802;2023-04-05T08:36:06;101041.44;;;5.21;nan
48089;BME280;33867;50.314;7.802;2023-04-05T08:39:25;101039.13;;;5.29;nan
48089;BME280;33867;50.314;7.802;2023-04-05T08:42:51;101045.44;;;5.43;nan
48089;BME280;33867;50.314;7.802;2023-04-05T08:46:16;101037.34;;;5.73;nan
48089;BME280;33867;50.314;7.802;2023-04-05T08:50:02;101032.97;;;5.72;nan
48089;BME280;33867;50.314;7.802;2023-04-05T08:53:24;101039.28;;;5.71;nan
48089;BME280;33867;50.314;7.802;2023-04-05T08:56:45;101042.34;;;5.93;nan
48089;BME280;33867;50.314;7.802;2023-04-05T09:00:07;101035.44;;;6.03;nan
48089;BME280;33867;50.314;7.802;2023-04-05T09:03:36;101028.72;;;6.25;nan
48089;BME280;33867;50.314;7.802;2023-04-05T09:07:00;101032.56;;;6.21;nan
48089;BME280;33867;50.314;7.802;2023-04-05T09:10:22;101023.47;;;6.50;nan
48089;BME280;33867;50.314;7.802;2023-04-05T09:13:45;101019.97;;;6.62;nan
48089;BME280;33867;50.314;7.802;2023-04-05T09:17:05;101026.06;;;6.52;nan
48089;BME280;33867;50.314;7.802;2023-04-05T09:20:24;101018.00;;;6.79;nan
48089;BME280;33867;50.314;7.802;2023-04-05T09:23:51;101015.16;;;6.94;nan
48089;BME280;33867;50.314;7.802;2023-04-05T09:27:16;101015.34;;;6.79;nan
48089;BME280;33867;50.314;7.802;2023-04-05T09:30:37;101005.72;;;6.89;nan
48089;BME280;33867;50.314;7.802;2023-04-05T09:34:05;101014.78;;;7.26;nan
48089;BME280;33867;50.314;7.802;2023-04-05T09:37:26;100998.81;;;7.37;nan
48089;BME280;33867;50.314;7.802;2023-04-05T09:40:47;100997.50;;;7.43;nan
48089;BME280;33867;50.314;7.802;2023-04-05T09:44:18;100989.75;;;7.76;nan
48089;BME280;33867;50.314;7.802;2023-04-05T09:47:37;100995.13;;;7.63;nan
48089;BME280;33867;50.314;7.802;2023-04-05T09:51:05;100999.00;;;7.72;nan
48089;BME280;33867;50.314;7.802;2023-04-05T09:54:24;100985.88;;;8.54;nan
48089;BME280;33867;50.314;7.802;2023-04-05T09:57:43;100986.59;;;8.32;nan
48089;BME280;33867;50.314;7.802;2023-04-05T10:01:03;100991.97;;;8.32;nan
48089;BME280;33867;50.314;7.802;2023-04-05T10:04:23;100983.19;;;9.24;nan
48089;BME280;33867;50.314;7.802;2023-04-05T10:07:42;100983.91;;;9.26;nan
48089;BME280;33867;50.314;7.802;2023-04-05T10:11:03;100983.25;;;9.11;nan
48089;BME280;33867;50.314;7.802;2023-04-05T10:14:23;100982.56;;;9.99;nan
48089;BME280;33867;50.314;7.802;2023-04-05T10:17:53;100981.72;;;9.98;nan
48089;BME280;33867;50.314;7.802;2023-04-05T10:21:22;100982.69;;;10.83;nan
48089;BME280;33867;50.314;7.802;2023-04-05T10:24:58;100965.34;;;12.10;nan
48089;BME280;33867;50.314;7.802;2023-04-05T10:28:34;100966.69;;;12.44;nan
48089;BME280;33867;50.314;7.802;2023-04-05T10:32:09;100955.84;;;13.22;nan
48089;BME280;33867;50.314;7.802;2023-04-05T10:35:49;100951.47;;;14.58;nan
48089;BME280;33867;50.314;7.802;2023-04-05T10:39:22;100945.00;;;13.22;nan
48089;BME280;33867;50.314;7.802;2023-04-05T10:42:45;100946.50;;;12.68;nan
48089;BME280;33867;50.314;7.802;2023-04-05T10:46:05;100944.88;;;14.15;nan
48089;BME280;33867;50.314;7.802;2023-04-05T10:49:32;100944.34;;;14.12;nan
48089;BME280;33867;50.314;7.802;2023-04-05T10:52:55;100950.19;;;13.52;nan
48089;BME280;33867;50.314;7.802;2023-04-05T10:56:15;100946.34;;;12.79;nan
48089;BME280;33867;50.314;7.802;2023-04-05T10:59:41;100948.31;;;13.62;nan
48089;BME280;33867;50.314;7.802;2023-04-05T11:03:01;100937.03;;;15.45;nan
48089;BME280;33867;50.314;7.802;2023-04-05T11:06:30;100937.63;;;17.14;nan
48089;BME280;33867;50.314;7.802;2023-04-05T11:10:04;100929.50;;;16.98;nan
48089;BME280;33867;50.314;7.802;2023-04-05T11:13:50;100910.66;;;18.30;nan
48089;BME280;33867;50.314;7.802;2023-04-05T11:17:25;100916.50;;;18.73;nan
48089;BME280;33867;50.314;7.802;2023-04-05T11:20:46;100906.38;;;19.34;nan
48089;BME280;33867;50.314;7.802;2023-04-05T11:24:10;100911.63;;;19.06;nan
48089;BME280;33867;50.314;7.802;2023-04-05T11:27:34;100904.69;;;19.48;nan
48089;BME280;33867;50.314;7.802;2023-04-05T11:31:14;100900.75;;;19.80;nan
48089;BME280;33867;50.314;7.802;2023-04-05T11:34:37;100893.88;;;20.41;nan
48089;BME280;33867;50.314;7.802;2023-04-05T11:41:18;100878.53;;;21.11;nan
48089;BME280;33867;50.314;7.802;2023-04-05T11:44:46;100881.38;;;21.59;nan
48089;BME280;33867;50.314;7.802;2023-04-05T11:48:07;100869.56;;;21.58;nan
48089;BME280;33867;50.314;7.802;2023-04-05T11:51:28;100871.78;;;21.42;nan
48089;BME280;33867;50.314;7.802;2023-04-05T11:54:47;100870.75;;;18.37;nan
48089;BME280;33867;50.314;7.802;2023-04-05T11:58:12;100879.69;;;18.00;nan
48089;BME280;33867;50.314;7.802;2023-04-05T12:01:31;100865.84;;;18.93;nan
48089;BME280;33867;50.314;7.802;2023-04-05T12:04:55;100867.56;;;19.83;nan
48089;BME280;33867;50.314;7.802;2023-04-05T12:08:15;100868.72;;;20.10;nan
48089;BME280;33867;50.314;7.802;2023-04-05T12:11:38;100861.50;;;18.84;nan
48089;BME280;33867;50.314;7.802;2023-04-05T12:15:01;100859.44;;;18.86;nan
48089;BME280;33867;50.314;7.802;2023-04-05T12:18:20;100853.78;;;19.91;nan
48089;BME280;33867;50.314;7.802;2023-04-05T12:21:39;100849.00;;;20.14;nan
48089;BME280;33867;50.314;7.802;2023-04-05T12:24:59;100843.06;;;19.90;nan
48089;BME280;33867;50.314;7.802;2023-04-05T12:28:18;100845.25;;;19.79;nan
48089;BME280;33867;50.314;7.802;2023-04-05T12:35:50;100829.59;;;21.01;nan
48089;BME280;33867;50.314;7.802;2023-04-05T12:39:09;100825.44;;;20.56;nan
48089;BME280;33867;50.314;7.802;2023-04-05T12:42:33;100823.72;;;19.91;nan
48089;BME280;33867;50.314;7.802;2023-04-05T12:45:57;100824.03;;;18.40;nan
48089;BME280;33867;50.314;7.802;2023-04-05T12:54:24;100812.34;;;17.39;nan
48089;BME280;33867;50.314;7.802;2023-04-05T12:57:50;100811.84;;;16.88;nan
48089;BME280;33867;50.314;7.802;2023-04-05T13:01:36;100801.81;;;17.44;nan
48089;BME280;33867;50.314;7.802;2023-04-05T13:05:34;100805.38;;;16.81;nan
48089;BME280;33867;50.314;7.802;2023-04-05T13:09:21;100800.00;;;17.59;nan
48089;BME280;33867;50.314;7.802;2023-04-05T13:12:40;100797.25;;;16.56;nan
48089;BME280;33867;50.314;7.802;2023-04-05T13:16:00;100787.09;;;17.22;nan
48089;BME280;33867;50.314;7.802;2023-04-05T13:19:21;100791.72;;;17.13;nan
48089;BME280;33867;50.314;7.802;2023-04-05T13:22:41;100780.44;;;16.20;nan
48089;BME280;33867;50.314;7.802;2023-04-05T13:31:03;100776.63;;;17.42;nan
48089;BME280;33867;50.314;7.802;2023-04-05T13:39:12;100768.72;;;17.55;nan
48089;BME280;33867;50.314;7.802;2023-04-05T13:46:54;100748.47;;;19.74;nan
48089;BME280;33867;50.314;7.802;2023-04-05T13:50:14;100743.09;;;19.80;nan
48089;BME280;33867;50.314;7.802;2023-04-05T13:53:33;100754.91;;;17.88;nan
48089;BME280;33867;50.314;7.802;2023-04-05T13:56:53;100741.34;;;18.25;nan
48089;BME280;33867;50.314;7.802;2023-04-05T14:00:18;100724.09;;;18.10;nan
48089;BME280;33867;50.314;7.802;2023-04-05T14:03:42;100735.94;;;17.40;nan
48089;BME280;33867;50.314;7.802;2023-04-05T14:07:28;100728.16;;;17.37;nan
48089;BME280;33867;50.314;7.802;2023-04-05T14:10:47;100737.19;;;15.36;nan
48089;BME280;33867;50.314;7.802;2023-04-05T14:14:12;100738.59;;;15.48;nan
48089;BME280;33867;50.314;7.802;2023-04-05T14:17:52;100724.88;;;15.58;nan
48089;BME280;33867;50.314;7.802;2023-04-05T14:21:14;100722.44;;;15.30;nan
48089;BME280;33867;50.314;7.802;2023-04-05T14:24:34;100731.91;;;14.32;nan
48089;BME280;33867;50.314;7.802;2023-04-05T14:27:53;100722.53;;;15.71;nan
48089;BME280;33867;50.314;7.802;2023-04-05T14:31:33;100711.69;;;16.03;nan
48089;BME280;33867;50.314;7.802;2023-04-05T14:34:54;100703.69;;;16.98;nan
48089;BME280;33867;50.314;7.802;2023-04-05T14:38:14;100692.16;;;17.27;nan
48089;BME280;33867;50.314;7.802;2023-04-05T14:46:15;100691.25;;;15.34;nan
48089;BME280;33867;50.314;7.802;2023-04-05T14:50:04;100689.13;;;14.61;nan
48089;BME280;33867;50.314;7.802;2023-04-05T14:53:28;100682.28;;;15.50;nan
48089;BME280;33867;50.314;7.802;2023-04-05T14:56:57;100678.03;;;15.47;nan
48089;BME280;33867;50.314;7.802;2023-04-05T15:00:25;100670.03;;;15.21;nan
48089;BME280;33867;50.314;7.802;2023-04-05T15:04:11;100677.38;;;14.53;nan
48089;BME280;33867;50.314;7.802;2023-04-05T15:07:37;100672.84;;;15.78;nan
48089;BME280;33867;50.314;7.802;2023-04-05T15:10:56;100670.72;;;15.32;nan
48089;BME280;33867;50.314;7.802;2023-04-05T15:14:16;100665.38;;;15.64;nan
48089;BME280;33867;50.314;7.802;2023-04-05T15:17:36;100663.97;;;15.44;nan
48089;BME280;33867;50.314;7.802;2023-04-05T15:20:55;100671.81;;;16.04;nan
48089;BME280;33867;50.314;7.802;2023-04-05T15:28:33;100661.94;;;14.45;nan
48089;BME280;33867;50.314;7.802;2023-04-05T15:31:51;100662.88;;;14.10;nan
48089;BME280;33867;50.314;7.802;2023-04-05T15:35:10;100666.19;;;14.48;nan
48089;BME280;33867;50.314;7.802;2023-04-05T15:38:30;100653.78;;;14.19;nan
48089;BME280;33867;50.314;7.802;2023-04-05T15:41:49;100660.78;;;13.78;nan
48089;BME280;33867;50.314;7.802;2023-04-05T15:45:09;100656.03;;;13.80;nan
48089;BME280;33867;50.314;7.802;2023-04-05T15:48:28;100654.97;;;13.73;nan
48089;BME280;33867;50.314;7.802;2023-04-05T15:51:47;100650.94;;;13.06;nan
48089;BME280;33867;50.314;7.802;2023-04-05T15:55:38;100645.38;;;13.79;nan
48089;BME280;33867;50.314;7.802;2023-04-05T15:58:58;100652.53;;;12.99;nan
48089;BME280;33867;50.314;7.802;2023-04-05T16:02:17;100657.41;;;12.95;nan
48089;BME280;33867;50.314;7.802;2023-04-05T16:05:36;100642.59;;;12.72;nan
48089;BME280;33867;50.314;7.802;2023-04-05T16:08:56;100656.16;;;12.25;nan
48089;BME280;33867;50.314;7.802;2023-04-05T16:12:15;100646.91;;;12.27;nan
48089;BME280;33867;50.314;7.802;2023-04-05T16:15:34;100645.41;;;12.06;nan
48089;BME280;33867;50.314;7.802;2023-04-05T16:18:54;100635.25;;;11.41;nan
48089;BME280;33867;50.314;7.802;2023-04-05T16:22:14;100641.63;;;11.31;nan
48089;BME280;33867;50.314;7.802;2023-04-05T16:25:54;100649.84;;;11.20;nan
48089;BME280;33867;50.314;7.802;2023-04-05T16:29:15;100642.91;;;11.56;nan
48089;BME280;33867;50.314;7.802;2023-04-05T16:36:25;100638.91;;;11.69;nan
48089;BME280;33867;50.314;7.802;2023-04-05T16:39:45;100631.56;;;11.42;nan
48089;BME280;33867;50.314;7.802;2023-04-05T16:43:04;100637.94;;;11.22;nan
48089;BME280;33867;50.314;7.802;2023-04-05T16:46:24;100640.63;;;11.03;nan
48089;BME280;33867;50.314;7.802;2023-04-05T16:49:47;100637.72;;;10.75;nan
48089;BME280;33867;50.314;7.802;2023-04-05T16:53:06;100642.25;;;10.75;nan
48089;BME280;33867;50.314;7.802;2023-04-05T16:56:32;100634.06;;;10.86;nan
48089;BME280;33867;50.314;7.802;2023-04-05T16:59:51;100644.91;;;10.65;nan
48089;BME280;33867;50.314;7.802;2023-04-05T17:03:10;100644.53;;;10.70;nan
48089;BME280;33867;50.314;7.802;2023-04-05T17:06:29;100639.66;;;10.54;nan
48089;BME280;33867;50.314;7.802;2023-04-05T17:09:50;100646.22;;;10.10;nan
48089;BME280;33867;50.314;7.802;2023-04-05T17:13:09;100644.91;;;10.25;nan
48089;BME280;33867;50.314;7.802;2023-04-05T17:16:28;100645.03;;;10.23;nan
48089;BME280;33867;50.314;7.802;2023-04-05T17:19:47;100644.97;;;10.14;nan
48089;BME280;33867;50.314;7.802;2023-04-05T17:23:34;100647.16;;;9.78;nan
48089;BME280;33867;50.314;7.802;2023-04-05T17:27:29;100653.19;;;9.71;nan
48089;BME280;33867;50.314;7.802;2023-04-05T17:30:48;100657.72;;;9.49;nan
48089;BME280;33867;50.314;7.802;2023-04-05T17:34:37;100654.75;;;9.20;nan
48089;BME280;33867;50.314;7.802;2023-04-05T17:37:58;100646.97;;;9.17;nan
48089;BME280;33867;50.314;7.802;2023-04-05T17:41:22;100652.22;;;9.07;nan
48089;BME280;33867;50.314;7.802;2023-04-05T17:44:42;100654.00;;;8.86;nan
48089;BME280;33867;50.314;7.802;2023-04-05T17:48:10;100657.22;;;8.69;nan
48089;BME280;33867;50.314;7.802;2023-04-05T17:51:41;100659.91;;;8.46;nan
48089;BME280;33867;50.314;7.802;2023-04-05T17:55:00;100659.78;;;8.37;nan
48089;BME280;33867;50.314;7.802;2023-04-05T17:58:21;100662.09;;;8.30;nan
48089;BME280;33867;50.314;7.802;2023-04-05T18:01:40;100662.06;;;8.19;nan
48089;BME280;33867;50.314;7.802;2023-04-05T18:09:50;100676.66;;;8.04;nan
48089;BME280;33867;50.314;7.802;2023-04-05T18:13:10;100676.31;;;7.97;nan
48089;BME280;33867;50.314;7.802;2023-04-05T18:16:29;100673.09;;;7.81;nan
48089;BME280;33867;50.314;7.802;2023-04-05T18:19:49;100678.44;;;7.70;nan
48089;BME280;33867;50.314;7.802;2023-04-05T18:23:09;100681.78;;;7.49;nan
48089;BME280;33867;50.314;7.802;2023-04-05T18:27:07;100679.06;;;7.38;nan
48089;BME280;33867;50.314;7.802;2023-04-05T18:31:06;100685.81;;;7.07;nan
48089;BME280;33867;50.314;7.802;2023-04-05T18:34:25;100687.78;;;6.68;nan
48089;BME280;33867;50.314;7.802;2023-04-05T18:37:43;100685.31;;;6.65;nan
48089;BME280;33867;50.314;7.802;2023-04-05T18:41:03;100690.25;;;6.59;nan
48089;BME280;33867;50.314;7.802;2023-04-05T18:44:22;100696.50;;;6.21;nan
48089;BME280;33867;50.314;7.802;2023-04-05T18:47:41;100698.66;;;6.29;nan
48089;BME280;33867;50.314;7.802;2023-04-05T18:51:06;100703.78;;;6.32;nan
48089;BME280;33867;50.314;7.802;2023-04-05T18:54:29;100706.44;;;6.06;nan
48089;BME280;33867;50.314;7.802;2023-04-05T18:57:58;100715.59;;;5.90;nan
48089;BME280;33867;50.314;7.802;2023-04-05T19:01:18;100723.28;;;5.42;nan
48089;BME280;33867;50.314;7.802;2023-04-05T19:04:38;100716.88;;;5.44;nan
48089;BME280;33867;50.314;7.802;2023-04-05T19:07:57;100724.63;;;5.62;nan
48089;BME280;33867;50.314;7.802;2023-04-05T19:11:17;100728.88;;;5.51;nan